createdAt,value
2022-10-12T00:00:17.905Z,88.81
2022-10-12T00:02:45.504Z,88.89
2022-10-12T00:05:26.104Z,89.03
2022-10-12T00:07:56.002Z,89.10
2022-10-12T00:10:52.203Z,89.04
2022-10-12T00:13:34.038Z,89.26
2022-10-12T00:16:27.110Z,89.03
2022-10-12T00:19:04.866Z,88.81
2022-10-12T00:21:47.225Z,89.01
2022-10-12T00:24:31.988Z,88.73
2022-10-12T00:27:11.742Z,88.74
2022-10-12T00:30:01.969Z,88.57
2022-10-12T00:33:01.451Z,88.21
2022-10-12T00:35:34.928Z,88.34
2022-10-12T00:38:10.052Z,88.43
2022-10-12T00:40:44.183Z,88.31
2022-10-12T00:43:38.586Z,88.24
2022-10-12T00:46:22.993Z,88.33
2022-10-12T00:48:58.747Z,88.54
2022-10-12T00:51:32.499Z,88.63
2022-10-12T00:54:09.248Z,88.58
2022-10-12T00:56:49.747Z,88.50
2022-10-12T00:59:23.906Z,88.51
2022-10-12T01:02:15.751Z,88.62
2022-10-12T01:05:00.895Z,88.60
2022-10-12T01:07:37.475Z,88.90
2022-10-12T01:10:18.491Z,89.01
2022-10-12T01:12:49.585Z,89.32
2022-10-12T01:15:44.331Z,89.30
2022-10-12T01:18:31.759Z,89.35
2022-10-12T01:21:23.485Z,89.25
2022-10-12T01:24:10.200Z,89.54
2022-10-12T01:27:32.848Z,90.42
2022-10-12T01:30:44.880Z,90.52
2022-10-12T01:33:37.924Z,90.75
2022-10-12T01:36:24.696Z,90.48
2022-10-12T01:39:12.779Z,90.50
2022-10-12T01:41:55.667Z,90.70
2022-10-12T01:44:37.961Z,90.64
2022-10-12T01:47:14.942Z,90.60
2022-10-12T01:50:11.169Z,90.71
2022-10-12T01:52:56.839Z,90.88
2022-10-12T01:55:45.218Z,90.85
2022-10-12T01:58:24.735Z,91.14
2022-10-12T02:01:31.470Z,91.19
2022-10-12T02:04:39.966Z,91.14
2022-10-12T02:07:30.616Z,91.41
2022-10-12T02:10:24.278Z,91.79
2022-10-12T02:13:03.002Z,92.04
2022-10-12T02:15:49.201Z,91.82
2022-10-12T02:18:36.725Z,91.68
2022-10-12T02:22:05.686Z,91.78
2022-10-12T02:24:38.310Z,91.81
2022-10-12T02:27:22.646Z,92.16
2022-10-12T02:29:55.190Z,93.18
2022-10-12T02:32:54.785Z,93.38
2022-10-12T02:36:00.155Z,94.02
2022-10-12T02:39:18.852Z,95.14
2022-10-12T02:42:37.856Z,95.86
2022-10-12T02:45:20.761Z,94.95
2022-10-12T02:48:01.826Z,94.94
2022-10-12T02:50:39.108Z,95.57
2022-10-12T02:53:24.640Z,95.53
2022-10-12T02:55:59.962Z,95.31
2022-10-12T02:58:40.605Z,95.44
2022-10-12T03:01:23.429Z,94.62
2022-10-12T03:03:53.587Z,95.20
2022-10-12T03:06:30.588Z,95.18
2022-10-12T03:09:11.722Z,95.24
2022-10-12T03:11:51.641Z,95.57
2022-10-12T03:14:30.994Z,94.81
2022-10-12T03:17:04.510Z,94.63
2022-10-12T03:19:44.016Z,94.60
2022-10-12T03:22:24.726Z,94.37
2022-10-12T03:25:11.285Z,95.96
2022-10-12T03:27:41.818Z,96.31
2022-10-12T03:30:31.589Z,96.65
2022-10-12T03:33:22.556Z,96.65
2022-10-12T03:36:15.032Z,95.84
2022-10-12T03:39:00.938Z,95.57
2022-10-12T03:41:48.547Z,96.00
2022-10-12T03:44:34.402Z,96.12
2022-10-12T03:47:26.393Z,95.56
2022-10-12T03:50:12.047Z,96.82
2022-10-12T03:52:52.912Z,96.77
2022-10-12T03:55:45.426Z,96.57
2022-10-12T03:58:21.777Z,96.84
2022-10-12T04:01:33.157Z,98.24
2022-10-12T04:04:21.549Z,97.37
2022-10-12T04:07:08.584Z,97.10
2022-10-12T04:09:49.917Z,96.42
2022-10-12T04:12:39.029Z,95.94
2022-10-12T04:15:19.806Z,97.26
2022-10-12T04:18:07.701Z,97.96
2022-10-12T04:20:55.281Z,98.28
2022-10-12T04:23:43.897Z,98.56
2022-10-12T04:26:30.535Z,98.07
2022-10-12T04:29:24.147Z,98.87
2022-10-12T04:32:40.745Z,99.05
2022-10-12T04:35:14.725Z,99.21
2022-10-12T04:38:04.537Z,99.16
2022-10-12T04:41:11.386Z,99.87
2022-10-12T04:43:51.058Z,99.14
2022-10-12T04:46:24.081Z,98.61
2022-10-12T04:51:58.889Z,99.15
2022-10-12T04:57:32.450Z,98.46
2022-10-12T05:00:10.327Z,97.97
2022-10-12T05:05:28.686Z,97.18
2022-10-12T05:08:08.228Z,98.09
2022-10-12T05:11:04.834Z,98.65
2022-10-12T05:13:58.656Z,98.47
2022-10-12T05:17:07.616Z,98.08
2022-10-12T05:20:03.321Z,98.97
2022-10-12T05:22:49.525Z,99.18
2022-10-12T05:25:23.629Z,99.70
2022-10-12T05:28:17.588Z,99.29
2022-10-12T05:31:36.844Z,98.68
2022-10-12T05:34:17.450Z,98.35
2022-10-12T05:37:08.762Z,98.17
2022-10-12T05:39:50.149Z,98.28
2022-10-12T05:42:51.787Z,98.01
2022-10-12T05:45:41.179Z,97.34
2022-10-12T05:48:32.511Z,97.07
2022-10-12T05:57:32.968Z,96.83
2022-10-12T06:00:25.611Z,96.28
2022-10-12T06:04:23.191Z,96.25
2022-10-12T06:07:22.273Z,96.61
2022-10-12T06:10:35.746Z,96.44
2022-10-12T06:13:26.060Z,96.13
2022-10-12T06:16:23.826Z,95.68
2022-10-12T06:19:22.831Z,95.81
2022-10-12T06:22:00.911Z,95.65
2022-10-12T06:25:41.433Z,95.08
2022-10-12T06:37:05.800Z,95.42
2022-10-12T06:40:03.396Z,95.54
2022-10-12T06:45:59.170Z,96.16
2022-10-12T06:49:02.130Z,96.01
2022-10-12T06:56:06.665Z,95.97
2022-10-12T07:02:41.327Z,95.87
2022-10-12T07:09:04.541Z,97.05
2022-10-12T07:12:13.109Z,97.04
2022-10-12T07:18:58.876Z,97.06
2022-10-12T07:25:29.797Z,96.78
2022-10-12T07:28:27.058Z,97.68
2022-10-12T07:35:03.997Z,97.92
2022-10-12T07:38:45.665Z,98.58
2022-10-12T07:56:59.847Z,100.00
2022-10-12T08:00:38.749Z,100.00
2022-10-12T08:02:56.415Z,100.00
2022-10-12T08:05:54.738Z,100.00
2022-10-12T08:09:14.990Z,100.00
2022-10-12T08:15:13.157Z,99.67
2022-10-12T08:17:45.908Z,99.51
2022-10-12T08:20:22.366Z,99.07
2022-10-12T08:23:00.590Z,98.83
2022-10-12T08:25:34.304Z,98.80
2022-10-12T08:28:23.121Z,98.50
2022-10-12T08:32:03.866Z,98.01
2022-10-12T08:34:42.603Z,97.52
2022-10-12T08:37:25.489Z,97.03
2022-10-12T08:40:41.283Z,96.45
2022-10-12T08:47:24.773Z,95.03
2022-10-12T08:50:50.620Z,94.77
2022-10-12T08:53:40.917Z,94.19
2022-10-12T08:56:31.533Z,93.99
2022-10-12T08:59:28.005Z,93.82
2022-10-12T09:02:28.083Z,93.29
2022-10-12T09:05:47.997Z,92.19
2022-10-12T09:09:23.365Z,92.38
2022-10-12T09:12:15.996Z,91.86
2022-10-12T09:15:39.418Z,91.21
2022-10-12T09:18:20.310Z,90.28
2022-10-12T09:21:06.529Z,89.84
2022-10-12T09:24:02.495Z,89.70
2022-10-12T09:27:03.340Z,89.51
2022-10-12T09:30:02.779Z,89.82
2022-10-12T09:35:54.288Z,88.49
2022-10-12T09:38:29.990Z,88.26
2022-10-12T09:44:47.435Z,86.64
2022-10-12T09:47:57.158Z,85.48
2022-10-12T09:50:51.656Z,85.59
2022-10-12T09:54:06.528Z,85.22
2022-10-12T10:00:24.225Z,83.10
2022-10-12T10:03:43.203Z,84.97
2022-10-12T10:13:43.609Z,81.97
2022-10-12T10:16:33.323Z,81.97
2022-10-12T10:19:20.169Z,81.07
2022-10-12T10:25:53.721Z,81.03
2022-10-12T10:29:15.073Z,80.70
2022-10-12T10:32:01.549Z,81.10
2022-10-12T10:35:25.288Z,77.26
2022-10-12T10:41:53.928Z,78.50
2022-10-12T10:45:12.968Z,78.32
2022-10-12T10:48:52.127Z,75.99
2022-10-12T10:51:37.976Z,75.66
2022-10-12T10:59:09.796Z,75.86
2022-10-12T11:02:15.992Z,75.33
2022-10-12T11:05:22.536Z,75.00
2022-10-12T11:08:45.640Z,74.81
2022-10-12T11:11:40.169Z,75.49
2022-10-12T11:15:23.191Z,74.09
2022-10-12T11:19:18.920Z,75.63
2022-10-12T11:27:35.372Z,72.45
2022-10-12T11:30:08.299Z,71.21
2022-10-12T11:41:19.449Z,70.39
2022-10-12T11:48:16.082Z,67.26
2022-10-12T11:51:22.194Z,69.52
2022-10-12T11:55:40.761Z,68.87
2022-10-12T12:01:45.622Z,69.64
2022-10-12T12:11:52.961Z,64.63
2022-10-12T12:15:00.544Z,70.74
2022-10-12T12:26:17.141Z,69.30
2022-10-12T12:29:42.088Z,69.97
2022-10-12T12:33:08.314Z,66.88
2022-10-12T12:36:16.170Z,66.35
2022-10-12T12:39:35.077Z,66.30
2022-10-12T12:42:41.518Z,66.24
2022-10-12T12:49:22.167Z,65.84
2022-10-12T12:52:27.908Z,68.81
2022-10-12T12:59:24.215Z,66.79
2022-10-12T13:03:02.090Z,65.76
2022-10-12T13:06:13.875Z,66.04
2022-10-12T13:16:36.650Z,68.72
2022-10-12T13:19:39.898Z,69.17
2022-10-12T13:23:01.819Z,64.77
2022-10-12T13:26:07.761Z,65.65
2022-10-12T13:30:13.415Z,67.10
2022-10-12T13:33:08.628Z,65.68
2022-10-12T13:36:32.688Z,65.32
2022-10-12T13:39:54.946Z,66.19
2022-10-12T13:43:13.568Z,65.78
2022-10-12T13:46:03.409Z,67.03
2022-10-12T13:49:53.427Z,65.14
2022-10-12T13:56:15.714Z,65.00
2022-10-12T13:59:29.121Z,67.32
2022-10-12T14:05:42.482Z,68.87
2022-10-12T14:12:05.105Z,65.49
2022-10-12T14:19:22.141Z,68.32
2022-10-12T14:28:34.391Z,69.21
2022-10-12T14:31:25.578Z,69.34
2022-10-12T14:34:51.940Z,67.53
2022-10-12T14:37:56.876Z,68.63
2022-10-12T14:41:00.448Z,69.39
2022-10-12T14:47:51.737Z,68.66
2022-10-12T14:53:40.919Z,71.18
2022-10-12T14:56:50.773Z,71.20
2022-10-12T14:59:42.506Z,71.67
2022-10-12T15:02:41.081Z,71.06
2022-10-12T15:06:22.221Z,72.26
2022-10-12T15:08:33.685Z,72.22
2022-10-12T15:11:30.725Z,72.81
2022-10-12T15:15:02.927Z,70.98
2022-10-12T15:17:47.324Z,72.91
2022-10-12T15:20:27.903Z,73.07
2022-10-12T15:23:48.307Z,73.26
2022-10-12T15:28:23.442Z,73.38
2022-10-12T15:30:12.100Z,73.94
2022-10-12T15:36:01.993Z,74.66
2022-10-12T15:44:53.092Z,75.41
2022-10-12T15:47:46.854Z,75.74
2022-10-12T15:50:37.132Z,75.88
2022-10-12T15:53:52.123Z,76.13
2022-10-12T15:56:31.807Z,76.33
2022-10-12T15:59:14.421Z,76.70
2022-10-12T16:05:26.422Z,77.20
2022-10-12T16:08:15.400Z,77.42
2022-10-12T16:13:56.480Z,77.99
2022-10-12T16:16:54.012Z,77.96
2022-10-12T16:19:32.720Z,78.16
2022-10-12T16:25:01.490Z,78.46
2022-10-12T16:27:36.006Z,78.51
2022-10-12T16:30:29.480Z,78.50
2022-10-12T16:33:27.959Z,78.47
2022-10-12T16:36:50.216Z,79.04
2022-10-12T16:39:37.798Z,78.92
2022-10-12T16:42:26.685Z,79.63
2022-10-12T16:48:12.377Z,79.59
2022-10-12T16:50:46.745Z,79.62
2022-10-12T16:53:38.849Z,79.78
2022-10-12T16:59:17.410Z,80.31
2022-10-12T17:05:11.390Z,80.36
2022-10-12T17:07:55.576Z,80.43
2022-10-12T17:10:39.194Z,80.39
2022-10-12T17:13:19.308Z,80.55
2022-10-12T17:19:25.114Z,80.47
2022-10-12T17:22:11.010Z,80.88
2022-10-12T17:25:42.592Z,80.99
2022-10-12T17:28:27.378Z,81.20
2022-10-12T17:31:35.716Z,80.90
2022-10-12T17:34:15.584Z,81.22
2022-10-12T17:36:51.296Z,81.27
2022-10-12T17:39:46.981Z,81.46
2022-10-12T17:42:36.178Z,81.64
2022-10-12T17:45:10.113Z,81.39
2022-10-12T17:48:09.754Z,81.61
2022-10-12T17:51:04.523Z,82.01
2022-10-12T17:54:18.698Z,81.98
2022-10-12T17:56:55.074Z,81.88
2022-10-12T17:59:39.041Z,81.77
2022-10-12T18:02:17.054Z,81.85
2022-10-12T18:05:35.416Z,81.74
2022-10-12T18:08:20.353Z,81.77
2022-10-12T18:11:05.619Z,82.06
2022-10-12T18:13:51.588Z,82.27
2022-10-12T18:16:33.819Z,82.26
2022-10-12T18:23:39.753Z,82.25
2022-10-12T18:25:43.451Z,82.44
2022-10-12T18:28:21.346Z,82.40
2022-10-12T18:31:02.191Z,82.37
2022-10-12T18:34:09.158Z,82.61
2022-10-12T18:36:45.485Z,82.50
2022-10-12T18:39:36.255Z,82.43
2022-10-12T18:42:34.433Z,82.88
2022-10-12T18:45:15.830Z,82.94
2022-10-12T18:47:56.791Z,82.70
2022-10-12T18:53:44.181Z,83.08
2022-10-12T18:56:26.377Z,82.90
2022-10-12T18:59:01.639Z,83.10
2022-10-12T19:02:11.852Z,83.36
2022-10-12T19:05:09.018Z,83.14
2022-10-12T19:08:07.201Z,83.26
2022-10-12T19:10:50.147Z,83.27
2022-10-12T19:13:21.415Z,83.33
2022-10-12T19:16:32.326Z,83.28
2022-10-12T19:19:14.786Z,83.14
2022-10-12T19:22:13.383Z,83.25
2022-10-12T19:28:08.394Z,83.84
2022-10-12T19:34:40.086Z,84.06
2022-10-12T19:37:55.905Z,83.70
2022-10-12T19:40:50.533Z,83.72
2022-10-12T19:43:48.989Z,83.84
2022-10-12T19:46:50.157Z,84.12
2022-10-12T19:49:27.472Z,84.08
2022-10-12T19:52:06.293Z,84.55
2022-10-12T19:54:53.790Z,83.96
2022-10-12T19:57:41.633Z,83.79
2022-10-12T20:00:25.264Z,83.98
2022-10-12T20:03:45.312Z,83.99
2022-10-12T20:05:52.965Z,84.22
2022-10-12T20:08:24.549Z,84.21
2022-10-12T20:10:55.366Z,84.41
2022-10-12T20:13:54.908Z,84.54
2022-10-12T20:16:58.193Z,84.74
2022-10-12T20:19:34.933Z,84.31
2022-10-12T20:22:34.551Z,84.32
2022-10-12T20:25:45.245Z,84.40
2022-10-12T20:31:50.956Z,84.34
2022-10-12T20:34:41.347Z,84.56
2022-10-12T20:37:55.879Z,84.53
2022-10-12T20:40:51.582Z,84.85
2022-10-12T20:46:38.100Z,84.97
2022-10-12T20:52:51.276Z,85.17
2022-10-12T20:58:49.340Z,85.32
2022-10-12T21:02:08.955Z,85.48
2022-10-12T21:05:02.123Z,85.59
2022-10-12T21:08:40.340Z,85.39
2022-10-12T21:11:28.264Z,86.31
2022-10-12T21:14:25.598Z,86.48
2022-10-12T21:17:28.027Z,86.24
2022-10-12T21:22:59.893Z,85.83
2022-10-12T21:27:11.869Z,85.82
2022-10-12T21:29:25.099Z,85.48
2022-10-12T21:32:10.547Z,85.53
2022-10-12T21:38:06.701Z,85.37
2022-10-12T21:41:01.234Z,85.50
2022-10-12T21:44:10.830Z,85.42
2022-10-12T21:50:40.701Z,85.87
2022-10-12T21:54:11.471Z,85.64
2022-10-12T21:57:15.225Z,85.94
2022-10-12T22:00:13.905Z,85.74
2022-10-12T22:02:48.952Z,85.78
2022-10-12T22:05:51.222Z,86.66
2022-10-12T22:09:30.519Z,86.57
2022-10-12T22:13:10.886Z,86.26
2022-10-12T22:15:47.512Z,86.69
2022-10-12T22:18:27.650Z,86.85
2022-10-12T22:21:47.140Z,87.23
2022-10-12T22:24:42.396Z,87.04
2022-10-12T22:30:46.638Z,86.79
2022-10-12T22:33:43.243Z,86.78
2022-10-12T22:36:33.139Z,86.82
2022-10-12T22:39:42.807Z,86.95
2022-10-12T22:45:31.766Z,86.54
2022-10-12T22:50:05.889Z,86.70
2022-10-12T22:55:07.440Z,87.26
2022-10-12T22:58:34.227Z,86.57
2022-10-12T23:01:14.891Z,86.42
2022-10-12T23:03:53.438Z,86.86
2022-10-12T23:07:12.830Z,87.00
2022-10-12T23:10:20.838Z,86.73
2022-10-12T23:13:29.644Z,86.76
2022-10-12T23:16:25.981Z,87.00
2022-10-12T23:19:38.306Z,86.93
2022-10-12T23:22:54.396Z,87.19
2022-10-12T23:26:11.528Z,87.37
2022-10-12T23:29:46.741Z,87.92
2022-10-12T23:32:37.072Z,88.00
2022-10-12T23:35:52.620Z,87.90
2022-10-12T23:38:47.196Z,88.13
2022-10-12T23:41:40.031Z,88.27
2022-10-12T23:44:39.784Z,88.24
2022-10-12T23:47:35.933Z,88.27
2022-10-12T23:50:35.848Z,88.34
2022-10-12T23:57:41.467Z,88.44
